createdAt,value
2019-02-09T00:02:25.801Z,8.50
2019-02-09T00:04:53.965Z,11.80
2019-02-09T00:07:22.132Z,9.10
2019-02-09T00:09:50.211Z,8.57
2019-02-09T00:12:18.295Z,12.87
2019-02-09T00:14:46.478Z,11.80
2019-02-09T00:17:14.559Z,12.80
2019-02-09T00:19:43.104Z,13.40
2019-02-09T00:22:11.213Z,12.70
2019-02-09T00:24:39.266Z,13.87
2019-02-09T00:27:07.335Z,15.03
2019-02-09T00:29:35.430Z,12.53
2019-02-09T00:32:03.539Z,14.90
2019-02-09T00:34:31.632Z,12.40
2019-02-09T00:36:59.702Z,12.50
2019-02-09T00:39:30.031Z,8.87
2019-02-09T00:41:59.091Z,13.40
2019-02-09T00:44:27.212Z,14.90
2019-02-09T00:46:55.301Z,15.87
2019-02-09T00:49:23.402Z,15.93
2019-02-09T00:51:51.485Z,11.70
2019-02-09T00:54:19.572Z,11.10
2019-02-09T00:56:47.727Z,11.90
2019-02-09T00:59:15.745Z,9.73
2019-02-09T01:01:44.525Z,9.20
2019-02-09T01:04:12.815Z,10.87
2019-02-09T01:06:40.918Z,11.10
2019-02-09T01:09:11.478Z,9.77
2019-02-09T01:11:39.523Z,12.50
2019-02-09T01:14:07.606Z,9.33
2019-02-09T01:16:35.631Z,10.00
2019-02-09T01:19:03.682Z,8.47
2019-02-09T01:21:31.834Z,12.93
2019-02-09T01:23:59.858Z,7.63
2019-02-09T01:26:27.922Z,11.27
2019-02-09T01:28:56.009Z,11.73
2019-02-09T01:31:24.880Z,10.27
2019-02-09T01:33:52.933Z,11.10
2019-02-09T01:36:21.004Z,10.60
2019-02-09T01:38:49.096Z,10.33
2019-02-09T01:41:17.589Z,9.03
2019-02-09T01:43:45.682Z,12.33
2019-02-09T01:46:13.758Z,12.23
2019-02-09T01:48:41.788Z,12.03
2019-02-09T01:51:09.847Z,11.67
2019-02-09T01:53:37.902Z,11.90
2019-02-09T01:56:05.974Z,10.47
2019-02-09T01:58:36.568Z,12.00
2019-02-09T02:01:05.298Z,10.70
2019-02-09T02:03:33.343Z,11.00
2019-02-09T02:06:01.374Z,11.77
2019-02-09T02:08:29.549Z,10.63
2019-02-09T02:10:57.635Z,11.27
2019-02-09T02:13:25.874Z,12.53
2019-02-09T02:15:53.988Z,10.10
2019-02-09T02:18:22.095Z,10.37
2019-02-09T02:20:50.226Z,11.03
2019-02-09T02:23:18.534Z,12.13
2019-02-09T02:25:46.568Z,9.43
2019-02-09T02:28:14.626Z,8.87
2019-02-09T02:30:42.694Z,14.63
2019-02-09T02:33:10.740Z,11.63
2019-02-09T02:35:38.923Z,10.83
2019-02-09T02:38:07.067Z,12.47
2019-02-09T02:40:35.887Z,9.73
2019-02-09T02:43:04.534Z,13.30
2019-02-09T02:45:32.577Z,14.00
2019-02-09T02:48:00.614Z,11.60
2019-02-09T02:50:28.876Z,14.50
2019-02-09T02:52:56.842Z,13.73
2019-02-09T02:55:25.575Z,15.10
2019-02-09T02:57:55.509Z,12.90
2019-02-09T03:00:31.791Z,12.87
2019-02-09T03:02:54.395Z,13.03
2019-02-09T03:05:23.010Z,15.67
2019-02-09T03:07:51.187Z,11.63
2019-02-09T03:10:19.256Z,13.57
2019-02-09T03:12:47.362Z,12.97
2019-02-09T03:15:16.541Z,11.30
2019-02-09T03:17:44.642Z,15.60
2019-02-09T03:20:13.652Z,17.90
2019-02-09T03:22:41.736Z,13.17
2019-02-09T03:25:11.407Z,15.17
2019-02-09T03:27:39.493Z,13.10
2019-02-09T03:30:07.984Z,12.00
2019-02-09T03:32:37.517Z,14.57
2019-02-09T03:35:06.402Z,12.77
2019-02-09T03:37:34.535Z,13.57
2019-02-09T03:40:05.090Z,15.13
2019-02-09T03:42:35.672Z,13.67
2019-02-09T03:45:04.414Z,15.53
2019-02-09T03:47:32.487Z,15.67
2019-02-09T03:50:00.836Z,14.17
2019-02-09T03:52:29.315Z,17.20
2019-02-09T03:55:00.554Z,14.93
2019-02-09T03:57:28.094Z,14.33
2019-02-09T03:59:56.142Z,14.07
2019-02-09T04:02:24.127Z,14.87
2019-02-09T04:04:52.238Z,15.10
2019-02-09T04:07:20.295Z,13.57
2019-02-09T04:09:48.850Z,14.77
2019-02-09T04:12:16.915Z,11.43
2019-02-09T04:14:44.922Z,14.07
2019-02-09T04:17:12.971Z,13.43
2019-02-09T04:19:40.929Z,15.50
2019-02-09T04:22:08.905Z,12.00
2019-02-09T04:24:37.015Z,12.53
2019-02-09T04:27:06.758Z,15.67
2019-02-09T04:29:34.830Z,14.07
2019-02-09T04:32:03.253Z,12.03
2019-02-09T04:34:31.421Z,12.73
2019-02-09T04:36:59.446Z,14.90
2019-02-09T04:39:27.552Z,14.37
2019-02-09T04:41:55.572Z,15.53
2019-02-09T04:44:23.796Z,13.93
2019-02-09T04:46:51.876Z,12.90
2019-02-09T04:49:19.907Z,12.07
2019-02-09T04:51:48.006Z,12.10
2019-02-09T04:54:16.080Z,16.57
2019-02-09T04:56:44.186Z,14.37
2019-02-09T04:59:13.222Z,14.63
2019-02-09T05:01:41.297Z,12.77
2019-02-09T05:04:09.367Z,16.47
2019-02-09T05:06:37.475Z,15.10
2019-02-09T05:09:06.947Z,16.57
2019-02-09T05:11:38.256Z,11.03
2019-02-09T05:14:06.012Z,17.77
2019-02-09T05:16:34.029Z,13.80
2019-02-09T05:19:02.035Z,14.07
2019-02-09T05:21:30.234Z,14.43
2019-02-09T05:23:58.301Z,14.13
2019-02-09T05:26:26.474Z,16.67
2019-02-09T05:28:54.513Z,14.40
2019-02-09T05:31:23.655Z,14.40
2019-02-09T05:33:52.070Z,13.67
2019-02-09T05:36:20.040Z,16.40
2019-02-09T05:38:48.204Z,17.77
2019-02-09T05:41:16.242Z,13.03
2019-02-09T05:43:44.327Z,13.17
2019-02-09T05:46:12.396Z,16.43
2019-02-09T05:48:40.623Z,11.57
2019-02-09T05:51:08.700Z,13.53
2019-02-09T05:53:36.794Z,16.77
2019-02-09T05:56:05.556Z,18.37
2019-02-09T05:58:33.682Z,11.90
2019-02-09T06:01:02.122Z,13.53
2019-02-09T06:03:30.183Z,13.97
2019-02-09T06:05:58.322Z,15.87
2019-02-09T06:08:26.465Z,14.93
2019-02-09T06:10:54.795Z,14.67
2019-02-09T06:13:22.861Z,12.47
2019-02-09T06:15:51.034Z,16.03
2019-02-09T06:18:19.174Z,15.00
2019-02-09T06:20:47.284Z,22.00
2019-02-09T06:23:15.374Z,19.77
2019-02-09T06:25:44.504Z,15.20
2019-02-09T06:28:12.652Z,16.07
2019-02-09T06:30:40.771Z,19.03
2019-02-09T06:33:08.872Z,13.97
2019-02-09T06:35:36.975Z,18.00
2019-02-09T06:38:07.178Z,21.27
2019-02-09T06:40:35.257Z,16.60
2019-02-09T06:43:03.888Z,17.83
2019-02-09T06:45:32.602Z,19.33
2019-02-09T06:48:17.436Z,21.57
2019-02-09T06:50:45.607Z,20.80
2019-02-09T06:53:13.817Z,18.17
2019-02-09T06:55:41.956Z,17.57
2019-02-09T06:58:10.107Z,17.13
2019-02-09T07:00:38.187Z,18.73
2019-02-09T07:03:06.365Z,18.00
2019-02-09T07:05:34.544Z,16.60
2019-02-09T07:08:02.782Z,17.93
2019-02-09T07:10:30.913Z,17.13
2019-02-09T07:12:59.095Z,16.10
2019-02-09T07:15:27.666Z,16.00
2019-02-09T07:17:55.757Z,15.63
2019-02-09T07:20:24.110Z,17.13
2019-02-09T07:22:55.069Z,16.60
2019-02-09T07:25:23.277Z,13.60
2019-02-09T07:27:51.318Z,20.60
2019-02-09T07:30:20.820Z,18.63
2019-02-09T07:32:51.650Z,13.87
2019-02-09T07:35:20.134Z,14.83
2019-02-09T07:37:48.507Z,15.63
2019-02-09T07:40:16.749Z,15.40
2019-02-09T07:42:44.778Z,37.20
2019-02-09T07:45:14.974Z,14.03
2019-02-09T07:47:43.128Z,27.03
2019-02-09T07:50:11.994Z,14.10
2019-02-09T07:52:40.382Z,13.83
2019-02-09T07:55:16.572Z,16.47
2019-02-09T07:57:46.123Z,10.93
2019-02-09T08:00:15.802Z,13.60
2019-02-09T08:02:43.904Z,15.13
2019-02-09T08:05:12.643Z,12.37
2019-02-09T08:07:40.879Z,15.23
2019-02-09T08:10:10.828Z,14.47
2019-02-09T08:12:38.916Z,11.43
2019-02-09T08:15:08.529Z,13.53
2019-02-09T08:17:36.638Z,15.37
2019-02-09T08:20:05.475Z,11.97
2019-02-09T08:22:34.999Z,15.97
2019-02-09T08:25:05.448Z,10.53
2019-02-09T08:27:33.510Z,16.40
2019-02-09T08:30:01.709Z,12.63
2019-02-09T08:32:29.872Z,11.60
2019-02-09T08:34:58.078Z,15.30
2019-02-09T08:37:26.231Z,14.77
2019-02-09T08:39:54.387Z,17.03
2019-02-09T08:42:22.488Z,12.77
2019-02-09T08:44:50.806Z,15.40
2019-02-09T08:47:18.870Z,15.23
2019-02-09T08:49:46.949Z,14.83
2019-02-09T08:52:15.027Z,13.97
2019-02-09T08:54:43.353Z,15.10
2019-02-09T08:57:12.007Z,13.30
2019-02-09T08:59:40.207Z,13.07
2019-02-09T09:02:08.452Z,13.10
2019-02-09T09:04:36.856Z,15.10
2019-02-09T09:07:05.325Z,15.57
2019-02-09T09:09:33.629Z,15.87
2019-02-09T09:12:01.683Z,13.10
2019-02-09T09:14:29.820Z,14.87
2019-02-09T09:16:58.349Z,15.40
2019-02-09T09:19:26.608Z,15.43
2019-02-09T09:21:54.874Z,13.07
2019-02-09T09:24:23.019Z,13.90
2019-02-09T09:26:51.301Z,21.13
2019-02-09T09:29:19.429Z,17.73
2019-02-09T09:31:47.527Z,16.77
2019-02-09T09:34:15.615Z,14.90
2019-02-09T09:36:44.119Z,15.17
2019-02-09T09:39:12.288Z,10.97
2019-02-09T09:41:40.492Z,15.33
2019-02-09T09:44:08.674Z,15.17
2019-02-09T09:46:37.090Z,14.93
2019-02-09T09:49:05.187Z,14.07
2019-02-09T09:51:35.625Z,18.03
2019-02-09T09:54:04.070Z,15.87
2019-02-09T09:56:37.742Z,16.23
2019-02-09T09:59:05.979Z,17.83
2019-02-09T10:01:34.277Z,16.70
2019-02-09T10:04:02.492Z,17.03
2019-02-09T10:06:33.254Z,14.20
2019-02-09T10:09:01.543Z,14.23
2019-02-09T10:11:29.696Z,13.40
2019-02-09T10:13:57.808Z,12.77
2019-02-09T10:16:25.962Z,13.47
2019-02-09T10:18:54.049Z,12.73
2019-02-09T10:21:22.260Z,13.83
2019-02-09T10:23:50.334Z,16.67
2019-02-09T10:26:18.476Z,14.27
2019-02-09T10:28:48.143Z,15.53
2019-02-09T10:31:17.022Z,15.13
2019-02-09T10:33:47.065Z,20.17
2019-02-09T10:36:15.208Z,19.00
2019-02-09T10:38:43.510Z,24.07
2019-02-09T10:41:11.582Z,17.33
2019-02-09T10:43:41.292Z,19.93
2019-02-09T10:46:09.379Z,21.93
2019-02-09T10:48:37.537Z,16.00
2019-02-09T10:51:05.803Z,15.57
2019-02-09T10:53:33.882Z,16.20
2019-02-09T10:56:02.126Z,17.17
2019-02-09T10:58:30.298Z,13.20
2019-02-09T11:01:03.103Z,13.47
2019-02-09T11:03:31.254Z,21.30
2019-02-09T11:05:59.381Z,14.17
2019-02-09T11:08:27.522Z,14.17
2019-02-09T11:10:55.720Z,12.33
2019-02-09T11:13:25.054Z,12.37
2019-02-09T11:15:53.344Z,12.50
2019-02-09T11:18:21.522Z,14.77
2019-02-09T11:20:51.802Z,13.73
2019-02-09T11:23:19.930Z,16.03
2019-02-09T11:25:48.331Z,13.37
2019-02-09T11:28:16.414Z,11.97
2019-02-09T11:30:45.247Z,10.17
2019-02-09T11:33:15.772Z,12.03
2019-02-09T11:35:44.020Z,11.17
2019-02-09T11:38:12.135Z,10.93
2019-02-09T11:40:40.906Z,11.63
2019-02-09T11:43:09.126Z,11.73
2019-02-09T11:45:37.712Z,11.50
2019-02-09T11:48:06.063Z,8.97
2019-02-09T11:50:34.293Z,10.90
2019-02-09T11:53:02.403Z,10.30
2019-02-09T11:55:30.665Z,11.00
2019-02-09T11:57:58.854Z,12.23
2019-02-09T12:00:31.129Z,11.73
2019-02-09T12:03:05.405Z,12.33
2019-02-09T12:05:29.083Z,13.43
2019-02-09T12:07:57.223Z,11.57
2019-02-09T12:10:25.375Z,10.03
2019-02-09T12:12:53.572Z,12.93
2019-02-09T12:15:26.093Z,11.27
2019-02-09T12:17:54.761Z,11.03
2019-02-09T12:20:23.066Z,8.90
2019-02-09T12:22:51.242Z,10.50
2019-02-09T12:25:20.252Z,12.93
2019-02-09T12:27:49.932Z,8.53
2019-02-09T12:30:19.603Z,8.83
2019-02-09T12:32:47.730Z,10.20
2019-02-09T12:35:16.230Z,9.70
2019-02-09T12:37:44.299Z,10.30
2019-02-09T12:40:17.854Z,10.77
2019-02-09T12:42:46.010Z,13.67
2019-02-09T12:45:14.587Z,12.23
2019-02-09T12:47:42.810Z,8.60
2019-02-09T12:50:12.475Z,11.07
2019-02-09T12:52:40.590Z,9.83
2019-02-09T12:55:08.916Z,10.87
2019-02-09T12:57:36.968Z,10.47
2019-02-09T13:00:06.265Z,9.73
2019-02-09T13:02:34.356Z,11.87
2019-02-09T13:05:02.747Z,11.10
2019-02-09T13:07:30.843Z,10.70
2019-02-09T13:09:58.907Z,9.17
2019-02-09T13:12:26.996Z,9.13
2019-02-09T13:14:55.063Z,11.07
2019-02-09T13:17:23.142Z,10.10
2019-02-09T13:19:51.182Z,12.13
2019-02-09T13:22:21.734Z,9.53
2019-02-09T13:24:49.787Z,9.73
2019-02-09T13:27:17.881Z,10.70
2019-02-09T13:29:45.939Z,8.50
2019-02-09T13:32:14.010Z,8.73
2019-02-09T13:34:42.113Z,11.47
2019-02-09T13:37:10.186Z,10.83
2019-02-09T13:39:38.220Z,7.33
2019-02-09T13:42:06.342Z,10.03
2019-02-09T13:44:34.421Z,8.13
2019-02-09T13:47:02.942Z,7.97
2019-02-09T13:49:31.003Z,10.27
2019-02-09T13:52:01.377Z,9.60
2019-02-09T13:54:29.452Z,9.33
2019-02-09T13:56:57.598Z,9.10
2019-02-09T13:59:25.582Z,7.77
2019-02-09T14:01:53.630Z,7.93
2019-02-09T14:04:21.662Z,8.37
2019-02-09T14:06:49.735Z,8.43
2019-02-09T14:09:18.050Z,8.23
2019-02-09T14:11:46.157Z,7.23
2019-02-09T14:14:14.215Z,9.47
2019-02-09T14:16:42.291Z,8.13
2019-02-09T14:19:10.516Z,7.10
2019-02-09T14:21:38.570Z,6.97
2019-02-09T14:24:06.632Z,8.80
2019-02-09T14:26:34.698Z,6.33
2019-02-09T14:29:02.829Z,8.07
2019-02-09T14:31:31.222Z,6.63
2019-02-09T14:33:59.340Z,9.20
2019-02-09T14:36:27.688Z,7.80
2019-02-09T14:38:55.778Z,7.10
2019-02-09T14:41:25.262Z,7.87
2019-02-09T14:43:53.330Z,9.83
2019-02-09T14:46:21.386Z,6.27
2019-02-09T14:48:50.634Z,6.13
2019-02-09T14:51:18.758Z,5.43
2019-02-09T14:53:46.973Z,6.00
2019-02-09T14:56:15.070Z,7.07
2019-02-09T14:58:43.112Z,6.73
2019-02-09T15:01:11.222Z,5.13
2019-02-09T15:03:39.262Z,7.27
2019-02-09T15:06:07.334Z,6.17
2019-02-09T15:08:35.353Z,6.50
2019-02-09T15:11:05.702Z,6.70
2019-02-09T15:13:33.782Z,6.67
2019-02-09T15:16:13.830Z,6.07
2019-02-09T15:18:41.878Z,5.30
2019-02-09T15:21:09.998Z,6.67
2019-02-09T15:23:38.090Z,5.77
2019-02-09T15:26:06.086Z,6.13
2019-02-09T15:28:34.367Z,5.30
2019-02-09T15:31:02.516Z,4.73
2019-02-09T15:33:30.613Z,6.83
2019-02-09T15:35:58.815Z,4.73
2019-02-09T15:38:26.830Z,6.63
2019-02-09T15:40:54.924Z,5.17
2019-02-09T15:43:23.009Z,6.27
2019-02-09T15:45:51.143Z,6.20
2019-02-09T15:48:19.260Z,5.60
2019-02-09T15:50:47.302Z,5.33
2019-02-09T15:53:15.414Z,7.80
2019-02-09T15:55:43.507Z,5.43
2019-02-09T15:58:11.621Z,5.73
2019-02-09T16:00:39.738Z,5.90
2019-02-09T16:03:07.923Z,6.50
2019-02-09T16:05:35.976Z,6.27
2019-02-09T16:08:05.470Z,6.13
2019-02-09T16:10:33.816Z,7.70
2019-02-09T16:13:03.849Z,6.30
2019-02-09T16:15:31.960Z,7.47
2019-02-09T16:18:00.022Z,7.67
2019-02-09T16:20:28.078Z,6.97
2019-02-09T16:22:56.159Z,8.10
2019-02-09T16:25:24.224Z,8.33
2019-02-09T16:27:52.413Z,9.63
2019-02-09T16:30:21.414Z,7.80
2019-02-09T16:32:49.560Z,8.60
2019-02-09T16:35:18.156Z,8.80
2019-02-09T16:37:46.442Z,6.33
2019-02-09T16:40:15.662Z,6.73
2019-02-09T16:42:46.123Z,7.97
2019-02-09T16:45:15.934Z,9.40
2019-02-09T16:47:44.002Z,8.90
2019-02-09T16:50:12.505Z,8.70
2019-02-09T16:52:40.610Z,8.37
2019-02-09T16:55:09.107Z,8.53
2019-02-09T16:57:37.179Z,7.53
2019-02-09T17:00:06.369Z,5.57
2019-02-09T17:02:34.442Z,7.83
2019-02-09T17:05:02.502Z,8.00
2019-02-09T17:07:30.718Z,8.23
2019-02-09T17:09:58.915Z,7.37
2019-02-09T17:12:27.116Z,5.53
2019-02-09T17:14:55.200Z,5.73
2019-02-09T17:17:23.635Z,6.60
2019-02-09T17:19:52.181Z,8.07
2019-02-09T17:22:20.726Z,7.17
2019-02-09T17:24:52.150Z,7.67
2019-02-09T17:27:20.294Z,7.93
2019-02-09T17:29:48.403Z,8.23
2019-02-09T17:32:16.415Z,6.83
2019-02-09T17:34:44.490Z,4.83
2019-02-09T17:37:12.559Z,8.77
2019-02-09T17:39:40.610Z,6.77
2019-02-09T17:42:08.735Z,7.43
2019-02-09T17:44:36.867Z,4.93
2019-02-09T17:47:05.084Z,7.00
2019-02-09T17:49:36.406Z,4.60
2019-02-09T17:52:04.896Z,6.67
2019-02-09T17:54:33.018Z,5.40
2019-02-09T17:57:02.721Z,4.80
2019-02-09T17:59:30.730Z,4.87
2019-02-09T18:02:00.070Z,5.00
2019-02-09T18:04:28.054Z,5.20
2019-02-09T18:06:56.098Z,5.70
2019-02-09T18:09:26.122Z,6.27
2019-02-09T18:11:54.166Z,5.80
2019-02-09T18:14:22.687Z,4.73
2019-02-09T18:16:53.887Z,5.03
2019-02-09T18:19:21.926Z,6.23
2019-02-09T18:21:49.903Z,5.67
2019-02-09T18:24:18.444Z,6.03
2019-02-09T18:26:46.541Z,5.00
2019-02-09T18:29:14.690Z,7.13
2019-02-09T18:31:42.735Z,5.60
2019-02-09T18:34:10.772Z,6.43
2019-02-09T18:36:38.803Z,6.47
2019-02-09T18:39:10.210Z,5.73
2019-02-09T18:41:38.230Z,5.50
2019-02-09T18:44:09.042Z,4.50
2019-02-09T18:46:37.109Z,7.17
2019-02-09T18:49:08.478Z,5.43
2019-02-09T18:51:36.559Z,5.93
2019-02-09T18:54:04.618Z,6.20
2019-02-09T18:56:32.694Z,4.40
2019-02-09T18:59:00.857Z,5.30
2019-02-09T19:01:29.295Z,5.47
2019-02-09T19:03:57.683Z,7.10
2019-02-09T19:06:25.747Z,5.30
2019-02-09T19:08:53.790Z,4.87
2019-02-09T19:11:21.737Z,6.17
2019-02-09T19:13:49.749Z,9.93
2019-02-09T19:16:18.478Z,8.30
2019-02-09T19:18:46.538Z,4.80
2019-02-09T19:21:15.554Z,6.33
2019-02-09T19:23:43.583Z,6.60
2019-02-09T19:26:14.621Z,7.00
2019-02-09T19:28:42.658Z,5.57
2019-02-09T19:31:11.821Z,7.53
2019-02-09T19:33:39.938Z,5.13
2019-02-09T19:36:09.083Z,6.77
2019-02-09T19:38:37.059Z,7.27
2019-02-09T19:41:05.111Z,6.83
2019-02-09T19:43:33.278Z,10.70
2019-02-09T19:46:06.734Z,5.07
2019-02-09T19:48:34.870Z,7.33
2019-02-09T19:51:03.117Z,5.10
2019-02-09T19:53:31.181Z,8.70
2019-02-09T19:55:59.237Z,7.07
2019-02-09T19:58:27.328Z,5.03
2019-02-09T20:00:55.397Z,5.97
2019-02-09T20:03:23.484Z,4.20
2019-02-09T20:05:51.610Z,9.53
2019-02-09T20:08:19.666Z,5.17
2019-02-09T20:10:47.714Z,7.70
2019-02-09T20:13:15.769Z,5.10
2019-02-09T20:15:43.860Z,4.70
2019-02-09T20:18:12.050Z,6.20
2019-02-09T20:20:47.307Z,7.07
2019-02-09T20:23:14.603Z,5.83
2019-02-09T20:25:43.777Z,6.23
2019-02-09T20:28:11.834Z,6.90
2019-02-09T20:30:42.696Z,3.50
2019-02-09T20:33:11.077Z,6.53
2019-02-09T20:35:39.118Z,6.40
2019-02-09T20:38:13.368Z,4.87
2019-02-09T20:40:43.096Z,6.70
2019-02-09T20:43:14.353Z,6.20
2019-02-09T20:45:42.856Z,5.83
2019-02-09T20:48:14.034Z,8.87
2019-02-09T20:50:43.355Z,5.97
2019-02-09T20:53:14.604Z,7.27
2019-02-09T20:55:53.226Z,7.93
2019-02-09T20:58:21.653Z,7.70
2019-02-09T21:00:50.094Z,9.53
2019-02-09T21:03:19.032Z,4.67
2019-02-09T21:05:47.119Z,6.50
2019-02-09T21:08:15.345Z,8.03
2019-02-09T21:10:43.690Z,9.20
2019-02-09T21:13:11.911Z,5.73
2019-02-09T21:15:39.965Z,6.67
2019-02-09T21:18:08.333Z,8.07
2019-02-09T21:20:36.469Z,8.17
2019-02-09T21:23:05.176Z,8.07
2019-02-09T21:25:34.165Z,8.70
2019-02-09T21:28:04.975Z,7.60
2019-02-09T21:30:33.101Z,7.57
2019-02-09T21:33:01.188Z,9.13
2019-02-09T21:35:30.535Z,6.33
2019-02-09T21:37:58.807Z,9.20
2019-02-09T21:40:27.482Z,9.03
2019-02-09T21:42:56.252Z,11.17
2019-02-09T21:45:24.554Z,7.93
2019-02-09T21:47:52.732Z,8.40
2019-02-09T21:50:25.118Z,12.50
2019-02-09T21:52:54.409Z,12.70
2019-02-09T21:55:22.681Z,9.03
2019-02-09T21:57:50.814Z,12.27
2019-02-09T22:00:20.062Z,11.53
2019-02-09T22:02:48.202Z,16.57
2019-02-09T22:05:16.346Z,10.30
2019-02-09T22:07:44.390Z,8.40
2019-02-09T22:10:13.774Z,9.70
2019-02-09T22:12:41.858Z,8.33
2019-02-09T22:15:10.057Z,11.40
2019-02-09T22:17:39.943Z,10.37
2019-02-09T22:20:10.164Z,9.60
2019-02-09T22:22:38.141Z,9.27
2019-02-09T22:25:06.736Z,10.13
2019-02-09T22:27:34.973Z,7.83
2019-02-09T22:30:05.783Z,9.10
2019-02-09T22:32:33.933Z,11.50
2019-02-09T22:35:02.070Z,8.70
2019-02-09T22:37:30.213Z,13.13
2019-02-09T22:39:58.333Z,10.50
2019-02-09T22:42:29.947Z,9.37
2019-02-09T22:44:58.042Z,8.07
2019-02-09T22:47:26.111Z,7.93
2019-02-09T22:49:55.898Z,6.13
2019-02-09T22:52:24.034Z,7.40
2019-02-09T22:54:52.099Z,8.77
2019-02-09T22:57:20.187Z,10.03
2019-02-09T22:59:48.254Z,8.00
2019-02-09T23:02:16.471Z,7.67
2019-02-09T23:04:50.418Z,8.47
2019-02-09T23:07:21.372Z,6.30
2019-02-09T23:09:49.382Z,9.53
2019-02-09T23:12:17.424Z,10.50
2019-02-09T23:14:45.566Z,9.60
2019-02-09T23:17:14.793Z,8.60
2019-02-09T23:19:42.753Z,6.97
2019-02-09T23:22:11.244Z,5.50
2019-02-09T23:24:39.302Z,9.33
2019-02-09T23:27:07.415Z,8.20
2019-02-09T23:29:35.311Z,7.97
2019-02-09T23:32:03.311Z,11.47
2019-02-09T23:34:31.738Z,7.50
2019-02-09T23:36:59.797Z,4.67
2019-02-09T23:39:27.833Z,8.30
2019-02-09T23:41:55.849Z,6.30
2019-02-09T23:44:23.807Z,5.60
2019-02-09T23:46:51.812Z,5.30
2019-02-09T23:49:23.065Z,3.83
2019-02-09T23:51:53.282Z,7.80
2019-02-09T23:54:21.308Z,9.73
2019-02-09T23:56:49.236Z,5.67
2019-02-09T23:59:17.277Z,5.27
